Time;durP1;ratioP1;P1;durP2;ratioP2;P2;SDS_P1;SDS_P2;PMS_P1;PMS_P2;Temp;Humidity;BMP_temperature;BMP_pressure;BME280_temperature;BME280_humidity;BME280_pressure;Samples;Min_cycle;Max_cycle;Signal;HPM_P1;HPM_P2
2022/08/24 00:00:43;;;;;;;20.82;12.49;;;;;;;24.79;28.48;101246.77;473940;112;922976;-80
2022/08/24 00:01:46;;;;;;;14.14;11.34;;;;;;;24.78;28.47;101251.52;473999;112;922864;-80
2022/08/24 00:02:49;;;;;;;15.73;10.96;;;;;;;24.79;28.46;101252.34;474052;112;922684;-79
2022/08/24 00:03:56;;;;;;;18.02;11.67;;;;;;;24.78;28.49;101251.52;473993;112;922719;-79
2022/08/24 00:05:00;;;;;;;18.77;11.49;;;;;;;24.77;28.46;101247.05;468144;112;922705;-79
2022/08/24 00:06:05;;;;;;;20.44;11.54;;;;;;;24.77;28.42;101251.80;456335;116;922630;-77
2022/08/24 00:07:08;;;;;;;15.20;11.26;;;;;;;24.76;28.48;101250.97;455795;116;922679;-81
2022/08/24 00:08:13;;;;;;;14.52;11.75;;;;;;;24.76;28.49;101256.55;454166;116;923099;-80
2022/08/24 00:09:18;;;;;;;20.32;11.88;;;;;;;24.75;28.45;101257.69;455802;116;923264;-79
2022/08/24 00:10:22;;;;;;;20.29;11.77;;;;;;;24.74;28.52;101257.98;455718;116;923377;-80
2022/08/24 00:11:25;;;;;;;14.51;11.39;;;;;;;24.74;28.52;101257.98;455977;116;922769;-80
2022/08/24 00:12:30;;;;;;;13.88;11.35;;;;;;;24.73;28.58;101265.51;455864;116;923012;-80
2022/08/24 00:13:34;;;;;;;17.91;11.13;;;;;;;24.73;28.54;101259.93;455906;116;922601;-79
2022/08/24 00:14:40;;;;;;;16.07;11.51;;;;;;;24.73;28.52;101262.72;455613;115;923258;-80
2022/08/24 00:15:43;;;;;;;14.03;11.82;;;;;;;24.73;28.56;101262.72;461592;114;922451;-79
2022/08/24 00:16:47;;;;;;;18.74;12.25;;;;;;;24.72;28.58;101263.84;460104;115;923152;-79
2022/08/24 00:17:50;;;;;;;15.28;11.71;;;;;;;24.72;28.57;101269.41;460106;115;930475;-78
2022/08/24 00:18:54;;;;;;;13.89;11.11;;;;;;;24.70;28.58;101268.06;460147;115;922910;-80
2022/08/24 00:19:59;;;;;;;19.20;11.79;;;;;;;24.69;28.60;101264.44;460014;115;923049;-78
2022/08/24 00:21:03;;;;;;;16.40;11.13;;;;;;;24.69;28.55;101264.44;460107;115;922721;-79
2022/08/24 00:22:06;;;;;;;16.51;10.86;;;;;;;24.69;28.52;101267.23;460043;115;923199;-81
2022/08/24 00:23:09;;;;;;;19.42;11.41;;;;;;;24.67;28.60;101275.04;460192;115;923190;-78
2022/08/24 00:24:13;;;;;;;17.51;10.86;;;;;;;24.67;28.54;101272.25;460187;115;922875;-79
2022/08/24 00:25:18;;;;;;;18.32;11.48;;;;;;;24.66;28.58;101275.33;460087;115;922535;-78
2022/08/24 00:26:22;;;;;;;16.51;11.77;;;;;;;24.66;28.59;101273.38;459925;115;930358;-78
2022/08/24 00:27:27;;;;;;;16.30;11.60;;;;;;;24.64;28.61;101272.02;459512;115;922926;-78
2022/08/24 00:28:30;;;;;;;15.01;11.50;;;;;;;24.64;28.63;101269.23;460182;115;922881;-78
2022/08/24 00:29:34;;;;;;;13.09;10.99;;;;;;;24.63;28.67;101267.56;459226;115;922634;-79
2022/08/24 00:30:37;;;;;;;15.99;10.52;;;;;;;24.63;28.71;101275.92;452798;115;922575;-79
2022/08/24 00:31:41;;;;;;;16.67;11.93;;;;;;;24.61;28.71;101281.78;464289;113;930314;-79
2022/08/24 00:32:45;;;;;;;14.43;12.18;;;;;;;24.60;28.74;101276.48;457402;114;922786;-79
2022/08/24 00:33:48;;;;;;;15.13;11.28;;;;;;;24.59;28.77;101267.29;466535;113;923097;-79
2022/08/24 00:34:52;;;;;;;15.41;11.65;;;;;;;24.59;28.78;101274.85;464782;114;930435;-80
2022/08/24 00:35:57;;;;;;;16.04;12.44;;;;;;;24.57;28.81;101274.30;467082;113;923095;-79
2022/08/24 00:37:01;;;;;;;16.38;12.14;;;;;;;24.57;28.89;101280.70;464775;114;922648;-78
2022/08/24 00:38:04;;;;;;;20.11;12.44;;;;;;;24.56;28.87;101276.25;467150;113;930624;-79
2022/08/24 00:39:08;;;;;;;19.06;13.74;;;;;;;24.56;28.88;101278.20;464651;114;922554;-80
2022/08/24 00:40:23;;;;;;;16.48;13.86;;;;;;;24.55;28.92;101276.53;467145;113;930518;-79
2022/08/24 00:41:27;;;;;;;20.67;14.72;;;;;;;24.55;28.91;101279.32;464520;114;930488;-80
2022/08/24 00:42:31;;;;;;;18.62;14.19;;;;;;;24.53;28.90;101285.21;467180;113;922761;-81
2022/08/24 00:43:34;;;;;;;17.28;14.08;;;;;;;24.52;28.90;101280.75;464709;114;922652;-79
2022/08/24 00:44:38;;;;;;;21.35;14.95;;;;;;;24.50;28.92;101283.82;467084;113;930523;-80
2022/08/24 00:45:44;;;;;;;20.56;14.79;;;;;;;24.49;28.95;101287.73;464774;114;923080;-81
2022/08/24 00:47:00;;;;;;;23.84;14.08;;;;;;;24.48;28.93;101285.22;464645;113;922601;-80
2022/08/24 00:48:07;;;;;;;18.15;13.46;;;;;;;24.48;28.96;101290.80;464605;114;922966;-80
2022/08/24 00:49:20;;;;;;;16.49;12.73;;;;;;;24.47;29.04;101291.95;467022;113;922601;-79
2022/08/24 00:50:35;;;;;;;16.88;14.13;;;;;;;24.45;29.01;101289.44;464632;114;922630;-78
2022/08/24 00:51:45;;;;;;;19.62;14.78;;;;;;;24.43;29.05;101291.67;467011;113;922616;-78
2022/08/24 00:52:55;;;;;;;20.49;14.41;;;;;;;24.41;29.13;101288.36;464510;114;922651;-79
2022/08/24 00:54:01;;;;;;;23.17;15.78;;;;;;;24.39;29.15;101287.81;472891;112;922963;-80
2022/08/24 00:55:08;;;;;;;26.72;16.39;;;;;;;24.38;29.16;101290.87;464542;114;923238;-80
2022/08/24 00:56:19;;;;;;;25.33;15.57;;;;;;;24.38;29.17;101293.66;464445;114;923027;-79
2022/08/24 00:57:25;;;;;;;24.33;15.02;;;;;;;24.38;29.18;101293.66;464947;114;922588;-79
2022/08/24 00:58:32;;;;;;;28.43;16.57;;;;;;;24.37;29.20;101294.78;464581;114;922669;-80
2022/08/24 00:59:42;;;;;;;21.14;15.53;;;;;;;24.36;29.25;101296.77;467062;113;922527;-80
2022/08/24 01:00:58;;;;;;;23.07;15.68;;;;;;;24.46;29.27;101296.69;477080;110;947192;-79
2022/08/24 01:02:09;;;;;;;29.43;15.92;;;;;;;24.34;29.29;101293.42;465399;114;923114;-78
2022/08/24 01:03:15;;;;;;;26.22;17.45;;;;;;;24.35;29.30;101297.05;464735;113;922628;-79
2022/08/24 01:04:28;;;;;;;27.44;18.39;;;;;;;24.33;29.34;101302.90;468608;112;923030;-80
2022/08/24 01:05:32;;;;;;;28.83;18.74;;;;;;;24.32;29.41;101292.03;471254;112;922974;-79
2022/08/24 01:06:36;;;;;;;34.51;19.67;;;;;;;24.30;29.39;101295.13;471285;112;922649;-79
2022/08/24 01:07:40;;;;;;;35.64;19.32;;;;;;;24.30;29.36;101297.91;471483;112;922559;-80
2022/08/24 01:08:44;;;;;;;31.66;19.07;;;;;;;24.29;29.42;101296.25;471663;112;922628;-79
2022/08/24 01:09:50;;;;;;;36.21;21.21;;;;;;;24.29;29.35;101295.41;471693;112;922609;-79
2022/08/24 01:11:00;;;;;;;27.89;20.12;;;;;;;24.28;29.37;101299.31;471736;112;922630;-80
2022/08/24 01:12:04;;;;;;;34.14;20.77;;;;;;;24.26;29.37;101296.80;471669;112;922711;-80
2022/08/24 01:13:10;;;;;;;35.65;21.32;;;;;;;24.26;29.37;101296.80;471858;112;922474;-78
2022/08/24 01:14:13;;;;;;;35.57;21.47;;;;;;;24.24;29.78;101299.06;471575;112;923201;-78
2022/08/24 01:15:19;;;;;;;37.43;21.85;;;;;;;24.24;29.78;101299.06;469420;112;922623;-79
2022/08/24 01:19:10;;;;;;;44.16;23.61;;;;;;;24.22;29.49;101297.67;463182;114;923230;-80
2022/08/24 01:20:14;;;;;;;40.82;22.83;;;;;;;24.21;29.46;101304.36;462409;114;922622;-78
2022/08/24 01:21:30;;;;;;;38.41;22.63;;;;;;;24.18;29.53;101300.22;463148;114;922571;-78
2022/08/24 01:22:48;;;;;;;37.19;21.83;;;;;;;24.18;29.56;101305.79;462893;114;930509;-79
2022/08/24 01:23:56;;;;;;;35.43;21.30;;;;;;;24.17;29.57;101311.61;453896;117;922753;-80
2022/08/24 01:25:00;;;;;;;36.08;21.92;;;;;;;24.15;29.64;101309.10;454729;114;922705;-78
2022/08/24 01:26:06;;;;;;;39.21;20.89;;;;;;;24.13;29.64;101308.58;463066;114;922541;-78
2022/08/24 01:27:10;;;;;;;29.53;20.85;;;;;;;24.13;29.64;101314.15;462987;114;922601;-79
2022/08/24 01:28:16;;;;;;;39.56;21.48;;;;;;;24.13;29.67;101313.31;462941;114;922648;-80
2022/08/24 01:29:25;;;;;;;38.52;22.18;;;;;;;24.13;29.74;101318.89;462665;114;930565;-79
2022/08/24 01:30:30;;;;;;;39.18;22.03;;;;;;;24.12;29.74;101315.27;469802;113;923185;-80
2022/08/24 01:31:35;;;;;;;35.76;20.15;;;;;;;24.11;29.69;101314.43;462177;114;922699;-80
2022/08/24 01:32:39;;;;;;;36.39;21.40;;;;;;;24.13;29.76;101330.03;463128;114;923069;-79
2022/08/24 01:33:42;;;;;;;32.03;20.05;;;;;;;24.11;29.77;101321.95;463056;112;930520;-80
2022/08/24 01:34:46;;;;;;;32.11;21.69;;;;;;;24.11;29.78;101327.52;463173;114;922609;-79
2022/08/24 01:35:51;;;;;;;42.67;21.75;;;;;;;24.10;29.79;101320.28;463122;114;922652;-80
2022/08/24 01:36:56;;;;;;;36.68;20.89;;;;;;;24.08;29.85;101317.80;462940;114;922610;-80
2022/08/24 01:38:03;;;;;;;36.89;21.28;;;;;;;24.08;29.78;101319.75;463004;114;923079;-80
2022/08/24 01:39:22;;;;;;;45.11;22.51;;;;;;;24.07;29.82;101327.28;453907;116;923020;-80
2022/08/24 01:40:29;;;;;;;38.24;21.33;;;;;;;24.06;29.78;101321.98;456453;114;922816;-80
2022/08/24 01:41:33;;;;;;;36.97;21.26;;;;;;;24.05;29.78;101323.93;462990;114;922928;-82
2022/08/24 01:42:37;;;;;;;32.31;20.10;;;;;;;24.05;29.75;101323.09;463106;114;922618;-80
2022/08/24 01:43:40;;;;;;;33.98;19.71;;;;;;;24.04;29.81;101326.99;463203;114;922687;-80
2022/08/24 01:44:44;;;;;;;32.83;18.52;;;;;;;24.03;29.77;101326.19;463209;114;922657;-80
2022/08/24 01:45:48;;;;;;;33.23;18.97;;;;;;;24.03;29.79;101323.41;462993;114;923073;-80
2022/08/24 01:46:54;;;;;;;26.05;17.54;;;;;;;24.03;29.78;101322.56;463075;114;922673;-79
2022/08/24 01:47:58;;;;;;;33.71;17.30;;;;;;;24.02;29.79;101318.95;463013;114;922587;-79
2022/08/24 01:49:02;;;;;;;26.72;15.65;;;;;;;24.02;29.74;101323.69;463094;114;922887;-80
2022/08/24 01:50:05;;;;;;;23.20;15.96;;;;;;;24.01;29.74;101322.84;463122;114;922796;-79
2022/08/24 01:51:09;;;;;;;26.58;15.59;;;;;;;24.01;29.78;101325.63;463076;114;930435;-79
2022/08/24 01:52:15;;;;;;;22.93;14.66;;;;;;;24.00;29.72;101320.34;463167;114;922558;-79
2022/08/24 01:53:19;;;;;;;17.85;13.56;;;;;;;24.00;29.73;101323.12;463000;114;923036;-80
2022/08/24 01:54:22;;;;;;;15.51;11.65;;;;;;;24.00;29.73;101318.39;463086;114;923186;-79
2022/08/24 01:55:26;;;;;;;21.11;12.28;;;;;;;23.99;29.72;101327.02;463105;114;923146;-78
2022/08/24 01:56:30;;;;;;;21.93;11.81;;;;;;;23.98;29.71;101323.41;462993;114;930578;-79
2022/08/24 01:57:35;;;;;;;17.81;10.07;;;;;;;23.98;29.68;101323.41;463009;114;922770;-79
2022/08/24 01:58:46;;;;;;;14.23;10.03;;;;;;;23.98;29.70;101326.19;463213;114;922550;-79
2022/08/24 01:59:49;;;;;;;15.33;9.84;;;;;;;23.98;29.67;101331.76;463025;114;922613;-79
2022/08/24 02:00:53;;;;;;;11.76;8.51;;;;;;;23.97;29.65;101332.06;463151;114;922697;-81
2022/08/24 02:01:59;;;;;;;15.71;8.59;;;;;;;23.96;29.68;101334.02;462312;114;922645;-80
2022/08/24 02:03:04;;;;;;;11.70;8.67;;;;;;;23.96;29.69;101331.23;461735;115;922875;-79
2022/08/24 02:04:08;;;;;;;10.85;6.95;;;;;;;23.96;29.69;101334.02;461729;115;922532;-80
2022/08/24 02:05:14;;;;;;;14.25;7.55;;;;;;;23.96;29.71;101333.19;461694;115;930391;-79
2022/08/24 02:06:19;;;;;;;13.63;6.47;;;;;;;23.96;29.72;101335.97;461812;115;922645;-80
2022/08/24 02:07:23;;;;;;;9.34;6.84;;;;;;;23.96;29.65;101330.40;461888;115;922660;-79
2022/08/24 02:08:26;;;;;;;8.34;5.30;;;;;;;23.95;29.68;101339.87;461779;115;930492;-80
2022/08/24 02:09:29;;;;;;;6.32;5.37;;;;;;;23.95;29.68;101339.87;461823;115;930919;-80
2022/08/24 02:10:36;;;;;;;10.09;5.19;;;;;;;23.95;29.67;101331.51;453598;117;922673;-79
2022/08/24 02:11:40;;;;;;;8.14;5.09;;;;;;;23.95;29.69;101334.30;446395;117;923003;-80
2022/08/24 02:12:56;;;;;;;9.34;5.07;;;;;;;23.95;29.66;101339.87;454123;115;922608;-80
2022/08/24 02:13:55;;;;;;;7.82;4.76;;;;;;;23.94;29.75;101330.67;461593;115;923061;-80
2022/08/24 02:15:01;;;;;;;5.63;4.97;;;;;;;23.94;29.69;101339.03;461790;114;922610;-80
2022/08/24 02:16:05;;;;;;;6.84;4.88;;;;;;;23.93;29.74;101334.57;462003;114;923115;-79
2022/08/24 02:17:09;;;;;;;5.74;4.37;;;;;;;23.93;29.71;101337.36;462076;114;922593;-80
2022/08/24 02:18:12;;;;;;;8.96;4.86;;;;;;;23.93;29.71;101342.92;462161;114;930562;-80
2022/08/24 02:19:17;;;;;;;9.39;4.67;;;;;;;23.92;29.74;101338.50;461999;114;922735;-80
2022/08/24 02:20:22;;;;;;;6.02;4.64;;;;;;;23.91;29.76;101339.61;462080;114;922638;-79
2022/08/24 02:21:25;;;;;;;8.39;4.76;;;;;;;23.92;29.77;101346.02;462123;114;923279;-79
2022/08/24 02:22:28;;;;;;;9.26;3.87;;;;;;;23.91;29.79;101344.34;462183;114;930470;-81
2022/08/24 02:23:32;;;;;;;5.33;3.96;;;;;;;23.90;29.80;101346.30;462252;114;922832;-80
2022/08/24 02:24:35;;;;;;;5.81;3.94;;;;;;;23.90;29.87;101342.67;462148;114;922639;-80
2022/08/24 02:25:38;;;;;;;9.81;4.11;;;;;;;23.89;29.85;101344.63;456449;116;923248;-80
2022/08/24 02:26:42;;;;;;;6.69;4.22;;;;;;;23.89;29.83;101341.00;456687;114;922904;-80
2022/08/24 02:27:45;;;;;;;6.71;4.12;;;;;;;23.87;29.87;101346.84;462254;114;922839;-80
2022/08/24 02:28:48;;;;;;;6.58;4.27;;;;;;;23.86;29.89;101342.42;462237;114;922560;-80
2022/08/24 02:29:52;;;;;;;12.47;3.58;;;;;;;23.86;29.86;101347.16;462254;114;922637;-80
2022/08/24 02:30:55;;;;;;;13.36;4.15;;;;;;;23.86;29.93;101352.73;462405;114;923095;-81
2022/08/24 02:31:59;;;;;;;4.90;3.04;;;;;;;23.84;29.83;101347.44;461697;115;922529;-80
2022/08/24 02:33:02;;;;;;;8.14;3.24;;;;;;;23.84;29.83;101349.38;461753;115;930506;-81
2022/08/24 02:34:06;;;;;;;3.76;2.84;;;;;;;23.83;29.93;101353.28;461741;113;922745;-80
2022/08/24 02:35:09;;;;;;;5.39;2.78;;;;;;;23.81;29.84;101342.45;461820;115;923189;-80
2022/08/24 02:36:15;;;;;;;5.67;2.51;;;;;;;23.81;29.85;101349.97;453466;116;922685;-79
2022/08/24 02:37:20;;;;;;;2.92;2.31;;;;;;;23.80;29.84;101340.77;453075;115;922681;-80
2022/08/24 02:38:23;;;;;;;5.53;2.34;;;;;;;23.81;29.87;101344.39;461799;115;922611;-80
2022/08/24 02:39:27;;;;;;;4.67;2.24;;;;;;;23.80;29.93;101348.30;453679;117;922655;-80
2022/08/24 02:40:31;;;;;;;3.86;2.06;;;;;;;23.80;29.95;101348.30;454145;115;922673;-79
2022/08/24 02:41:36;;;;;;;4.65;2.80;;;;;;;23.80;29.95;101349.13;461724;115;922556;-81
2022/08/24 02:42:39;;;;;;;5.92;3.03;;;;;;;23.81;29.97;101355.53;461563;114;930601;-81
2022/08/24 02:43:43;;;;;;;5.90;4.62;;;;;;;23.79;30.02;101349.41;461656;115;930488;-80
2022/08/24 02:44:46;;;;;;;6.40;4.29;;;;;;;23.78;30.12;101356.09;453686;117;922949;-80
2022/08/24 02:45:52;;;;;;;10.39;5.78;;;;;;;23.78;30.27;101356.09;454078;115;923367;-80
2022/08/24 02:46:57;;;;;;;11.41;10.21;;;;;;;23.77;30.23;101354.41;461617;115;923116;-81
2022/08/24 02:48:01;;;;;;;22.09;16.54;;;;;;;23.76;30.36;101355.56;461652;115;922600;-79
2022/08/24 02:49:05;;;;;;;24.29;20.72;;;;;;;23.76;30.35;101358.34;461625;115;923033;-79
2022/08/24 02:50:13;;;;;;;36.17;24.87;;;;;;;23.75;30.43;101363.08;453018;117;922723;-81
2022/08/24 02:51:22;;;;;;;32.48;25.24;;;;;;;23.74;30.50;101366.97;454434;115;922725;-80
2022/08/24 02:52:25;;;;;;;31.39;24.54;;;;;;;23.75;30.54;101359.45;461579;115;922651;-79
2022/08/24 02:53:29;;;;;;;33.69;24.63;;;;;;;23.74;30.59;101366.13;461767;115;922899;-80
2022/08/24 02:54:32;;;;;;;27.74;23.44;;;;;;;23.74;30.67;101360.56;461778;115;922618;-79
2022/08/24 02:55:38;;;;;;;29.71;24.49;;;;;;;23.74;30.71;101366.13;461693;115;922869;-80
2022/08/24 02:56:41;;;;;;;29.34;23.67;;;;;;;23.72;30.78;101366.41;461501;115;930364;-79
2022/08/24 02:57:46;;;;;;;34.46;25.36;;;;;;;23.72;30.85;101366.41;453494;117;922602;-80
2022/08/24 02:58:49;;;;;;;28.29;22.91;;;;;;;23.71;30.78;101366.72;454051;115;922645;-80
2022/08/24 02:59:55;;;;;;;33.66;22.30;;;;;;;23.71;30.80;101363.93;461389;115;922607;-80
2022/08/24 03:00:58;;;;;;;32.38;22.53;;;;;;;23.70;30.72;101365.87;461735;115;922953;-79
2022/08/24 03:02:02;;;;;;;27.58;21.01;;;;;;;23.69;30.75;101364.20;462259;114;922931;-80
2022/08/24 03:03:07;;;;;;;25.37;20.02;;;;;;;23.68;30.70;101363.37;463046;114;922645;-79
2022/08/24 03:04:11;;;;;;;25.25;19.08;;;;;;;23.68;30.68;101366.16;462796;114;930186;-80
2022/08/24 03:05:14;;;;;;;24.30;18.97;;;;;;;23.68;30.70;101365.31;463065;114;923205;-80
2022/08/24 03:06:19;;;;;;;27.37;17.88;;;;;;;23.67;30.69;101366.42;462902;114;922656;-79
2022/08/24 03:07:22;;;;;;;21.71;16.78;;;;;;;23.66;30.69;101370.32;463112;114;922845;-79
2022/08/24 03:08:25;;;;;;;27.05;17.09;;;;;;;23.66;30.68;101365.59;463083;114;922524;-80
2022/08/24 03:09:31;;;;;;;21.67;15.88;;;;;;;23.65;30.70;101372.27;462858;114;922584;-80
2022/08/24 03:10:35;;;;;;;17.77;15.04;;;;;;;23.65;30.72;101368.68;462985;114;922884;-77
2022/08/24 03:11:39;;;;;;;24.36;17.45;;;;;;;23.64;30.70;101373.41;463006;114;922626;-79
2022/08/24 03:12:44;;;;;;;23.11;16.54;;;;;;;23.64;30.81;101370.62;462900;114;922721;-78
2022/08/24 03:13:47;;;;;;;17.79;15.72;;;;;;;23.65;30.82;101374.25;463052;114;922441;-80
2022/08/24 03:14:50;;;;;;;24.41;16.29;;;;;;;23.64;30.88;101384.55;463120;114;922587;-80
2022/08/24 03:15:54;;;;;;;21.92;16.48;;;;;;;23.64;30.97;101373.41;463063;114;922598;-79
2022/08/24 03:16:57;;;;;;;19.00;16.16;;;;;;;23.64;31.00;101373.41;462977;114;922559;-80
2022/08/24 03:18:00;;;;;;;25.15;17.30;;;;;;;23.64;31.00;101370.62;463079;114;930464;-80
2022/08/24 03:19:04;;;;;;;30.74;18.26;;;;;;;23.64;31.06;101372.58;463131;114;922578;-79
2022/08/24 03:20:12;;;;;;;23.61;17.61;;;;;;;23.64;31.12;101378.98;462884;114;922626;-79
2022/08/24 03:21:16;;;;;;;25.21;17.94;;;;;;;23.64;31.16;101383.72;462871;114;922824;-79
2022/08/24 03:22:20;;;;;;;26.71;17.64;;;;;;;23.63;31.14;101388.44;462997;114;922632;-79
2022/08/24 03:23:24;;;;;;;21.81;18.04;;;;;;;23.64;31.12;101386.50;463073;114;922555;-79
2022/08/24 03:24:27;;;;;;;29.91;17.64;;;;;;;23.63;31.14;101377.31;463017;114;922489;-79
2022/08/24 03:25:30;;;;;;;27.57;16.91;;;;;;;23.63;31.15;101382.87;463097;114;923064;-78
2022/08/24 03:26:34;;;;;;;26.79;17.50;;;;;;;23.63;31.16;101382.03;463027;114;922504;-79
2022/08/24 03:27:37;;;;;;;25.52;17.94;;;;;;;23.63;31.09;101388.44;463079;114;922535;-80
2022/08/24 03:28:41;;;;;;;23.26;17.16;;;;;;;23.62;31.12;101383.98;463153;114;922685;-80
2022/08/24 03:29:47;;;;;;;24.77;17.35;;;;;;;23.63;31.16;101377.31;462880;114;922692;-79
2022/08/24 03:30:53;;;;;;;28.32;17.34;;;;;;;23.64;31.24;101381.77;462874;114;922583;-80
2022/08/24 03:31:59;;;;;;;25.20;17.76;;;;;;;23.63;31.24;101385.66;462881;114;922928;-80
2022/08/24 03:33:04;;;;;;;25.29;16.38;;;;;;;23.64;31.25;101378.98;463010;114;922654;-80
2022/08/24 03:34:07;;;;;;;20.51;15.16;;;;;;;23.65;31.36;101382.60;462974;112;922726;-79
2022/08/24 03:35:11;;;;;;;28.07;15.50;;;;;;;23.65;31.45;101388.17;463054;114;923104;-79
2022/08/24 03:36:17;;;;;;;23.81;15.29;;;;;;;23.64;31.47;101389.28;462471;114;922622;-79
2022/08/24 03:37:20;;;;;;;22.21;14.45;;;;;;;23.65;31.47;101382.60;462970;114;923005;-79
2022/08/24 03:38:24;;;;;;;20.91;14.89;;;;;;;23.64;31.38;101384.55;462940;114;930592;-80
2022/08/24 03:39:27;;;;;;;21.31;14.47;;;;;;;23.65;31.36;101383.41;462860;114;930574;-80
2022/08/24 03:40:32;;;;;;;25.66;15.73;;;;;;;23.64;31.31;101390.12;462963;114;922750;-79
2022/08/24 03:41:35;;;;;;;26.79;16.42;;;;;;;23.63;31.32;101382.87;462765;114;930512;-79
2022/08/24 03:42:39;;;;;;;25.37;15.91;;;;;;;23.64;31.20;101390.12;462900;114;930523;-79
2022/08/24 03:43:47;;;;;;;33.96;16.87;;;;;;;23.65;31.19;101394.55;462919;114;922625;-79
2022/08/24 03:44:52;;;;;;;25.73;15.77;;;;;;;23.65;31.18;101390.95;462839;114;922617;-79
2022/08/24 03:45:55;;;;;;;28.05;17.91;;;;;;;23.66;31.28;101395.38;463118;114;922650;-79
2022/08/24 03:46:59;;;;;;;34.13;19.66;;;;;;;23.66;31.18;101398.17;453972;116;922631;-79
2022/08/24 03:48:03;;;;;;;32.13;17.91;;;;;;;23.66;31.10;101392.59;454417;114;922631;-80
2022/08/24 03:49:08;;;;;;;31.03;19.00;;;;;;;23.66;31.12;101401.78;462910;114;923278;-79
2022/08/24 03:50:12;;;;;;;33.65;18.72;;;;;;;23.66;31.04;101399.00;462929;114;922673;-81
2022/08/24 03:51:18;;;;;;;26.41;18.58;;;;;;;23.66;31.04;101400.95;462960;114;922541;-79
2022/08/24 03:52:22;;;;;;;26.83;17.71;;;;;;;23.66;31.06;101403.73;462811;114;930720;-80
2022/08/24 03:53:27;;;;;;;23.52;17.41;;;;;;;23.66;31.07;101403.73;453768;116;923389;-80
2022/08/24 03:54:30;;;;;;;25.49;15.20;;;;;;;23.66;31.05;101395.38;454320;114;922669;-79
2022/08/24 03:55:34;;;;;;;28.49;15.84;;;;;;;23.66;31.05;101403.73;463097;114;922671;-80
2022/08/24 03:56:37;;;;;;;23.32;13.84;;;;;;;23.65;31.02;101396.52;463088;114;922675;-80
2022/08/24 03:57:41;;;;;;;23.02;13.28;;;;;;;23.65;30.98;101405.68;462972;114;922609;-79
2022/08/24 03:58:45;;;;;;;20.66;12.43;;;;;;;23.65;30.96;101402.89;463066;114;922832;-78
2022/08/24 03:59:48;;;;;;;19.74;11.15;;;;;;;23.66;30.97;101404.57;462996;114;923151;-79
2022/08/24 04:00:51;;;;;;;14.22;11.91;;;;;;;23.65;30.99;101400.11;462970;114;922678;-79
2022/08/24 04:01:56;;;;;;;14.30;11.21;;;;;;;23.66;30.94;101406.52;462938;114;922607;-79
2022/08/24 04:03:01;;;;;;;18.46;10.62;;;;;;;23.66;30.93;101409.30;462824;114;922724;-80
2022/08/24 04:04:05;;;;;;;13.05;8.94;;;;;;;23.65;30.86;101402.89;462970;114;922609;-81
2022/08/24 04:05:11;;;;;;;12.73;10.24;;;;;;;23.66;30.78;101404.57;470071;112;923072;-79
2022/08/24 04:06:17;;;;;;;12.84;9.26;;;;;;;23.67;30.75;101408.19;471179;112;922640;-79
2022/08/24 04:07:20;;;;;;;15.98;9.02;;;;;;;23.66;30.79;101404.57;471172;112;922629;-80
2022/08/24 04:08:24;;;;;;;13.79;9.77;;;;;;;23.66;30.63;101400.95;471430;112;923010;-80
2022/08/24 04:09:27;;;;;;;18.13;8.75;;;;;;;23.65;30.63;101405.68;471349;112;922586;-78
2022/08/24 04:10:34;;;;;;;12.52;8.72;;;;;;;23.65;30.65;101408.47;471232;112;922928;-80
2022/08/24 04:11:38;;;;;;;15.27;8.43;;;;;;;23.66;30.70;101407.36;471217;112;922909;-79
2022/08/24 04:12:44;;;;;;;12.43;8.39;;;;;;;23.65;30.69;101402.89;471101;112;922611;-78
2022/08/24 04:13:52;;;;;;;14.89;8.84;;;;;;;23.66;30.69;101410.14;471130;112;922835;-80
2022/08/24 04:14:55;;;;;;;17.25;9.22;;;;;;;23.66;30.68;101404.57;471180;112;922536;-80
2022/08/24 04:16:08;;;;;;;12.26;8.14;;;;;;;23.66;30.70;101403.73;462955;114;923035;-79
2022/08/24 04:17:12;;;;;;;16.13;9.59;;;;;;;23.66;30.70;101409.30;461422;114;930241;-78
2022/08/24 04:18:17;;;;;;;12.39;9.59;;;;;;;23.64;30.79;101412.39;462832;114;923289;-80
2022/08/24 04:19:20;;;;;;;14.63;9.25;;;;;;;23.65;30.85;101402.89;463022;114;923028;-80
2022/08/24 04:20:24;;;;;;;15.36;9.32;;;;;;;23.66;30.92;101404.57;463074;114;922790;-80
2022/08/24 04:21:33;;;;;;;14.80;9.40;;;;;;;23.66;30.89;101406.52;463025;114;922601;-79
2022/08/24 04:22:40;;;;;;;11.68;8.70;;;;;;;23.66;30.90;101407.36;453693;117;922686;-80
2022/08/24 04:23:43;;;;;;;13.26;8.59;;;;;;;23.68;30.96;101409.87;445932;117;922996;-79
2022/08/24 04:24:48;;;;;;;11.86;8.09;;;;;;;23.67;31.02;101414.59;462876;114;922563;-79
2022/08/24 04:25:52;;;;;;;12.66;8.19;;;;;;;23.68;31.03;101418.22;463006;114;923138;-78
2022/08/24 04:26:55;;;;;;;11.45;8.03;;;;;;;23.68;31.02;101412.66;462964;114;922526;-79
2022/08/24 04:28:00;;;;;;;11.60;7.64;;;;;;;23.68;31.05;101413.48;462870;114;922546;-80
2022/08/24 04:29:04;;;;;;;12.18;7.68;;;;;;;23.68;31.10;101413.48;463077;114;922583;-80
2022/08/24 04:30:10;;;;;;;12.78;7.51;;;;;;;23.69;31.10;101417.95;464537;114;922627;-80
2022/08/24 04:31:21;;;;;;;13.61;7.39;;;;;;;23.69;31.17;101415.16;458415;115;922943;-80
2022/08/24 04:32:25;;;;;;;11.41;7.68;;;;;;;23.70;31.13;101410.43;460904;115;922607;-81
2022/08/24 04:33:30;;;;;;;10.97;7.42;;;;;;;23.72;31.10;101418.48;459727;115;922668;-80
2022/08/24 04:34:33;;;;;;;8.51;6.70;;;;;;;23.72;31.11;101412.91;461827;114;922937;-80
2022/08/24 04:35:38;;;;;;;14.24;7.90;;;;;;;23.73;31.09;101406.23;463165;114;922896;-80
2022/08/24 04:36:44;;;;;;;12.26;7.90;;;;;;;23.74;31.10;101411.53;462860;114;922591;-79
2022/08/24 04:37:48;;;;;;;11.12;7.42;;;;;;;23.75;31.10;101409.58;462835;114;922963;-81
2022/08/24 04:38:52;;;;;;;15.70;7.99;;;;;;;23.76;31.13;101409.30;462944;114;922743;-79
2022/08/24 04:39:59;;;;;;;11.71;7.32;;;;;;;23.77;31.15;101412.89;459606;114;922605;-80
2022/08/24 04:41:11;;;;;;;11.91;7.07;;;;;;;23.77;31.15;101399.81;462512;114;923137;-81
2022/08/24 04:42:16;;;;;;;12.81;7.37;;;;;;;23.78;31.16;101406.22;462837;114;922763;-78
2022/08/24 04:43:20;;;;;;;14.99;7.14;;;;;;;23.78;31.23;101409.00;463019;114;923315;-78
2022/08/24 04:44:24;;;;;;;10.94;6.06;;;;;;;23.78;31.25;101412.63;462986;114;922941;-80
2022/08/24 04:45:28;;;;;;;9.43;6.54;;;;;;;23.79;31.32;101402.32;463082;114;923286;-80
2022/08/24 04:46:32;;;;;;;10.62;5.96;;;;;;;23.80;31.33;101409.56;462906;114;922631;-80
2022/08/24 04:47:35;;;;;;;10.82;5.72;;;;;;;23.81;31.38;101405.66;463018;114;930532;-79
2022/08/24 04:48:39;;;;;;;13.10;6.08;;;;;;;23.82;31.46;101401.77;462983;114;922754;-78
2022/08/24 04:49:42;;;;;;;8.79;6.08;;;;;;;23.82;31.47;101413.72;462993;114;930468;-79
2022/08/24 04:50:45;;;;;;;11.22;6.02;;;;;;;23.83;31.56;101408.98;463051;114;922548;-79
2022/08/24 04:51:48;;;;;;;7.67;5.61;;;;;;;23.83;31.59;101408.98;463065;114;922584;-79
2022/08/24 04:52:52;;;;;;;14.12;5.51;;;;;;;23.84;31.67;101405.92;463029;114;922622;-79
2022/08/24 04:53:56;;;;;;;7.84;5.54;;;;;;;23.85;31.82;101412.33;462959;114;922527;-77
2022/08/24 04:55:00;;;;;;;11.76;6.01;;;;;;;23.84;31.83;101399.52;463010;114;930508;-79
2022/08/24 04:56:11;;;;;;;8.82;6.16;;;;;;;23.85;32.01;101396.45;462940;114;922672;-78